Time;durP1;ratioP1;P1;durP2;ratioP2;P2;SDS_P1;SDS_P2;PMS_P1;PMS_P2;Temp;Humidity;BMP_temperature;BMP_pressure;BME280_temperature;BME280_humidity;BME280_pressure;Samples;Min_cycle;Max_cycle;Signal;HPM_P1;HPM_P2
2022/06/03 00:01:54;;;;;;;0.17;0.17;;;12.90;99.90;;;;;;5012692;28;20041;-69
2022/06/03 00:04:58;;;;;;;0.10;0.10;;;12.80;99.90;;;;;;5009047;28;20046;-69
2022/06/03 00:07:41;;;;;;;0.10;0.10;;;12.80;99.90;;;;;;5019490;28;20038;-69
2022/06/03 00:10:28;;;;;;;0.10;0.10;;;12.80;99.90;;;;;;5012543;28;20050;-69
2022/06/03 00:13:33;;;;;;;0.10;0.10;;;12.70;99.90;;;;;;5015250;28;20033;-69
2022/06/03 00:16:08;;;;;;;0.15;0.15;;;12.70;99.90;;;;;;5022571;28;20455;-69
2022/06/03 00:18:48;;;;;;;0.30;0.30;;;12.70;99.90;;;;;;5014227;28;20042;-69
2022/06/03 00:21:45;;;;;;;0.20;0.20;;;12.70;99.90;;;;;;5020598;28;20520;-69
2022/06/03 00:24:49;;;;;;;0.10;0.10;;;12.60;99.90;;;;;;5027355;28;20045;-69
2022/06/03 00:27:40;;;;;;;0.13;0.13;;;12.60;99.90;;;;;;5024355;28;20533;-69
2022/06/03 00:30:27;;;;;;;0.10;0.10;;;12.50;99.90;;;;;;5008804;28;20084;-69
2022/06/03 00:33:11;;;;;;;0.00;0.00;;;12.50;99.90;;;;;;5024856;28;20091;-69
2022/06/03 00:35:52;;;;;;;0.32;0.32;;;12.50;99.90;;;;;;5013852;28;20053;-69
2022/06/03 00:38:33;;;;;;;0.55;0.55;;;12.50;99.90;;;;;;5017749;28;20049;-69
2022/06/03 00:41:25;;;;;;;0.10;0.10;;;12.40;99.90;;;;;;5026692;28;20046;-69
2022/06/03 00:44:15;;;;;;;0.77;0.52;;;12.40;99.90;;;;;;5031190;28;20038;-69
2022/06/03 00:46:53;;;;;;;0.10;0.10;;;12.40;99.90;;;;;;5021580;28;20503;-69
2022/06/03 00:49:50;;;;;;;0.43;0.43;;;12.40;99.90;;;;;;5023046;28;20049;-69
2022/06/03 00:52:34;;;;;;;0.10;0.10;;;12.40;99.90;;;;;;5027071;28;20140;-69
2022/06/03 00:55:19;;;;;;;0.08;0.08;;;12.40;99.90;;;;;;5022096;28;20119;-69
2022/06/03 00:58:04;;;;;;;0.30;0.30;;;12.40;99.90;;;;;;5015285;28;20729;-70
2022/06/03 01:01:07;;;;;;;1.77;0.90;;;12.40;99.90;;;;;;5007897;28;20536;-69
2022/06/03 01:03:58;;;;;;;0.90;0.83;;;12.40;99.90;;;;;;5036744;28;20054;-69
2022/06/03 01:06:42;;;;;;;0.10;0.10;;;12.30;99.90;;;;;;5018961;28;20099;-69
2022/06/03 01:09:47;;;;;;;2.30;1.08;;;12.30;99.90;;;;;;5012933;28;20042;-69
2022/06/03 01:12:41;;;;;;;0.00;0.00;;;12.30;99.90;;;;;;5020934;28;20120;-69
2022/06/03 01:15:21;;;;;;;0.10;0.10;;;12.30;99.90;;;;;;5025457;28;20120;-69
2022/06/03 01:18:02;;;;;;;0.30;0.30;;;12.30;99.90;;;;;;5009674;28;20104;-69
2022/06/03 01:20:41;;;;;;;0.28;0.28;;;12.20;99.90;;;;;;5018325;28;20085;-69
2022/06/03 01:23:38;;;;;;;0.10;0.10;;;12.20;99.90;;;;;;5019075;28;20037;-69
2022/06/03 01:26:30;;;;;;;0.08;0.08;;;12.20;99.90;;;;;;5006895;28;20490;-69
2022/06/03 01:29:22;;;;;;;0.32;0.32;;;12.20;99.90;;;;;;5023106;28;20053;-69
2022/06/03 01:32:36;;;;;;;0.10;0.10;;;12.10;99.90;;;;;;5020207;28;20049;-69
2022/06/03 01:35:31;;;;;;;0.10;0.10;;;12.00;99.90;;;;;;5023538;28;20094;-69
2022/06/03 01:38:07;;;;;;;0.10;0.10;;;12.10;99.90;;;;;;5024550;28;20417;-68
2022/06/03 01:40:41;;;;;;;0.03;0.03;;;12.00;99.90;;;;;;5034182;28;20049;-68
2022/06/03 01:43:19;;;;;;;0.10;0.10;;;12.00;99.90;;;;;;5011393;28;20046;-69
2022/06/03 01:46:03;;;;;;;0.10;0.10;;;12.00;99.90;;;;;;5012680;28;20117;-69
2022/06/03 01:48:56;;;;;;;0.10;0.10;;;12.00;99.90;;;;;;5028563;28;20046;-69
2022/06/03 01:51:40;;;;;;;0.80;0.55;;;12.00;99.90;;;;;;5021836;28;20064;-69
2022/06/03 01:54:31;;;;;;;0.10;0.10;;;12.00;99.90;;;;;;5029596;28;20063;-69
2022/06/03 01:57:24;;;;;;;0.10;0.10;;;12.00;99.90;;;;;;5011890;28;20058;-68
2022/06/03 01:59:50;;;;;;;0.10;0.10;;;12.00;99.90;;;;;;5011385;28;20046;-69
2022/06/03 02:02:29;;;;;;;0.03;0.03;;;12.00;99.90;;;;;;5013968;28;20046;-69
2022/06/03 02:05:31;;;;;;;0.10;0.10;;;11.90;99.90;;;;;;5013509;28;20045;-69
2022/06/03 02:08:49;;;;;;;0.20;0.20;;;11.90;99.90;;;;;;5025903;28;20132;-69
2022/06/03 02:11:35;;;;;;;0.10;0.10;;;12.00;99.90;;;;;;5003259;28;20103;-69
2022/06/03 02:14:20;;;;;;;0.40;0.40;;;12.00;99.90;;;;;;5024434;28;20054;-69
2022/06/03 02:17:09;;;;;;;0.10;0.10;;;11.90;99.90;;;;;;5025468;28;20046;-69
2022/06/03 02:19:54;;;;;;;0.10;0.10;;;11.90;99.90;;;;;;5020284;28;20061;-69
2022/06/03 02:22:50;;;;;;;0.30;0.30;;;11.90;99.90;;;;;;5018537;28;20057;-69
2022/06/03 02:25:53;;;;;;;0.10;0.10;;;11.90;99.90;;;;;;5023653;28;20517;-68
2022/06/03 02:28:37;;;;;;;0.30;0.30;;;11.90;99.90;;;;;;5009620;28;20379;-68
2022/06/03 02:31:24;;;;;;;0.10;0.10;;;11.90;99.90;;;;;;5011030;28;20041;-69
2022/06/03 02:33:53;;;;;;;0.40;0.40;;;11.90;99.90;;;;;;5014346;28;20229;-68
2022/06/03 02:36:52;;;;;;;1.25;0.30;;;11.90;99.90;;;;;;5021825;28;20582;-68
2022/06/03 02:39:45;;;;;;;0.10;0.10;;;11.80;99.90;;;;;;5018698;28;20056;-69
2022/06/03 02:42:39;;;;;;;0.10;0.10;;;11.90;99.90;;;;;;5012364;28;20129;-69
2022/06/03 02:45:36;;;;;;;0.10;0.10;;;11.90;99.90;;;;;;5024022;28;20049;-68
2022/06/03 02:48:10;;;;;;;0.00;0.00;;;11.90;99.90;;;;;;5018805;28;20046;-68
2022/06/03 02:51:05;;;;;;;0.25;0.25;;;11.80;99.90;;;;;;5024176;28;20503;-69
2022/06/03 02:53:46;;;;;;;1.75;1.05;;;11.80;99.90;;;;;;5019638;28;20543;-68
2022/06/03 02:56:17;;;;;;;0.28;0.28;;;11.80;99.90;;;;;;5012108;28;20128;-69
2022/06/03 02:59:07;;;;;;;0.50;0.50;;;11.80;99.90;;;;;;5024294;28;20609;-68
2022/06/03 03:01:36;;;;;;;0.52;0.52;;;11.80;99.90;;;;;;5020122;28;20045;-68
2022/06/03 03:04:35;;;;;;;0.00;0.00;;;11.80;99.90;;;;;;5026864;28;20045;-68
2022/06/03 03:07:15;;;;;;;0.10;0.10;;;11.80;99.90;;;;;;5010868;28;20524;-68
2022/06/03 03:10:18;;;;;;;0.50;0.50;;;11.80;99.90;;;;;;5022596;28;20147;-68
2022/06/03 03:12:55;;;;;;;0.10;0.10;;;11.80;99.90;;;;;;5021796;28;20049;-69
2022/06/03 03:15:27;;;;;;;0.32;0.32;;;11.80;99.90;;;;;;5013521;28;20486;-69
2022/06/03 03:18:30;;;;;;;0.03;0.03;;;11.80;99.90;;;;;;5022486;28;20052;-69
2022/06/03 03:21:22;;;;;;;0.25;0.25;;;11.80;99.90;;;;;;5025425;28;20100;-68
2022/06/03 03:24:18;;;;;;;0.30;0.30;;;11.80;99.90;;;;;;5022468;28;20374;-68
2022/06/03 03:27:26;;;;;;;0.03;0.03;;;11.70;99.90;;;;;;5010880;28;20073;-68
2022/06/03 03:30:24;;;;;;;0.30;0.30;;;11.70;99.90;;;;;;5020868;28;20045;-68
2022/06/03 03:33:11;;;;;;;0.10;0.10;;;11.70;99.90;;;;;;5027308;28;20052;-68
2022/06/03 03:36:14;;;;;;;0.20;0.20;;;11.70;99.90;;;;;;5025885;28;20085;-68
2022/06/03 03:38:58;;;;;;;0.10;0.10;;;11.70;99.90;;;;;;5015180;28;20379;-69
2022/06/03 03:41:24;;;;;;;0.10;0.10;;;11.70;99.90;;;;;;5007372;28;20049;-68
2022/06/03 03:44:17;;;;;;;0.63;0.57;;;11.70;99.90;;;;;;5009290;28;20045;-68
2022/06/03 03:47:20;;;;;;;1.25;0.80;;;11.70;99.90;;;;;;5012428;28;20058;-68
2022/06/03 03:50:00;;;;;;;0.20;0.20;;;11.60;99.90;;;;;;5010502;28;20088;-68
2022/06/03 03:52:50;;;;;;;0.10;0.10;;;11.70;99.90;;;;;;5022026;28;20481;-68
2022/06/03 03:55:56;;;;;;;0.10;0.10;;;11.70;99.90;;;;;;5008301;28;20093;-68
2022/06/03 03:58:43;;;;;;;0.20;0.20;;;11.70;99.90;;;;;;5008305;28;20709;-69
2022/06/03 04:01:26;;;;;;;0.00;0.00;;;11.70;99.90;;;;;;5016639;28;20052;-68
2022/06/03 04:04:18;;;;;;;0.10;0.10;;;11.70;99.90;;;;;;5028227;28;20540;-68
2022/06/03 04:07:37;;;;;;;0.30;0.30;;;11.70;99.90;;;;;;5023924;28;20060;-68
2022/06/03 04:10:24;;;;;;;0.70;0.35;;;11.70;99.90;;;;;;5005280;28;20054;-68
2022/06/03 04:13:12;;;;;;;0.05;0.05;;;11.70;99.90;;;;;;5006842;28;20063;-69
2022/06/03 04:16:00;;;;;;;0.28;0.28;;;11.70;99.90;;;;;;5026050;28;20041;-68
2022/06/03 04:18:54;;;;;;;0.15;0.15;;;11.70;99.90;;;;;;5024546;28;20053;-68
2022/06/03 04:21:47;;;;;;;0.77;0.77;;;11.70;99.90;;;;;;5010402;28;20049;-69
2022/06/03 04:24:39;;;;;;;0.20;0.20;;;11.80;99.90;;;;;;5012773;28;20053;-68
2022/06/03 04:27:52;;;;;;;1.85;1.25;;;11.80;99.90;;;;;;5013414;28;20087;-68
2022/06/03 04:30:49;;;;;;;0.10;0.10;;;11.70;99.90;;;;;;5026552;28;20070;-68
2022/06/03 04:33:24;;;;;;;0.10;0.10;;;11.80;99.90;;;;;;5020613;28;20041;-69
2022/06/03 04:36:04;;;;;;;0.20;0.20;;;11.80;99.90;;;;;;5007807;28;20054;-68
2022/06/03 04:38:55;;;;;;;0.10;0.10;;;11.80;99.90;;;;;;5022032;28;20056;-69
2022/06/03 04:41:26;;;;;;;0.15;0.15;;;11.80;99.90;;;;;;5024728;28;20083;-69
2022/06/03 04:44:13;;;;;;;0.10;0.10;;;11.90;99.90;;;;;;5007767;28;20445;-68
2022/06/03 04:47:08;;;;;;;0.10;0.10;;;11.90;99.90;;;;;;5012843;28;20049;-68
2022/06/03 04:50:11;;;;;;;0.25;0.25;;;12.00;99.90;;;;;;5043247;28;20076;-68
2022/06/03 04:53:14;;;;;;;0.35;0.35;;;12.00;99.90;;;;;;5013926;28;20513;-68
2022/06/03 04:56:11;;;;;;;0.10;0.10;;;12.10;99.90;;;;;;5012608;28;20045;-68
2022/06/03 04:59:06;;;;;;;0.38;0.38;;;12.10;99.90;;;;;;5027525;28;20049;-68
2022/06/03 05:02:06;;;;;;;0.20;0.20;;;12.20;99.90;;;;;;5041112;28;20049;-68
2022/06/03 05:05:14;;;;;;;0.77;0.77;;;12.20;99.90;;;;;;5025535;28;20140;-68
2022/06/03 05:08:35;;;;;;;0.10;0.10;;;12.30;99.90;;;;;;5010802;28;20046;-69
2022/06/03 05:11:55;;;;;;;0.05;0.05;;;12.30;99.90;;;;;;4992631;28;20468;-68
2022/06/03 05:14:48;;;;;;;0.20;0.20;;;12.40;99.90;;;;;;5019135;28;20045;-68
2022/06/03 05:17:35;;;;;;;0.60;0.50;;;12.50;99.90;;;;;;5021950;28;20208;-68
2022/06/03 05:20:43;;;;;;;0.10;0.10;;;12.50;99.90;;;;;;5007779;28;20649;-68
2022/06/03 05:23:40;;;;;;;0.00;0.00;;;12.60;99.90;;;;;;5025092;28;20049;-68
2022/06/03 05:26:40;;;;;;;0.52;0.52;;;12.70;99.90;;;;;;5025862;28;20045;-68
2022/06/03 05:29:39;;;;;;;0.13;0.13;;;12.70;99.90;;;;;;5017185;28;20049;-68
2022/06/03 05:32:41;;;;;;;0.20;0.20;;;12.70;99.90;;;;;;5022377;28;20049;-68
2022/06/03 05:35:27;;;;;;;0.13;0.13;;;12.80;99.90;;;;;;5023174;28;20163;-68
2022/06/03 05:38:25;;;;;;;0.10;0.10;;;12.90;99.90;;;;;;5010818;28;20113;-68
2022/06/03 05:41:00;;;;;;;0.10;0.10;;;12.90;99.90;;;;;;5007178;28;20053;-68
2022/06/03 05:43:38;;;;;;;0.22;0.22;;;12.90;99.90;;;;;;5013661;28;20048;-68
2022/06/03 05:46:33;;;;;;;0.30;0.30;;;13.00;99.90;;;;;;5006560;28;20437;-68
2022/06/03 05:49:10;;;;;;;0.10;0.10;;;13.10;99.90;;;;;;5006989;28;20044;-68
2022/06/03 05:52:27;;;;;;;0.10;0.10;;;13.10;99.90;;;;;;5012733;28;20049;-68
2022/06/03 05:55:15;;;;;;;0.20;0.20;;;13.10;99.90;;;;;;5042946;28;20571;-67
2022/06/03 05:58:10;;;;;;;0.20;0.20;;;13.10;99.90;;;;;;5006412;28;20486;-68
2022/06/03 06:00:57;;;;;;;0.15;0.15;;;13.30;99.90;;;;;;5021189;28;20042;-68
2022/06/03 06:03:38;;;;;;;0.20;0.20;;;13.20;99.90;;;;;;5012711;28;20572;-68
2022/06/03 06:06:41;;;;;;;0.20;0.20;;;13.30;99.90;;;;;;5005316;28;20061;-69
2022/06/03 06:09:19;;;;;;;0.20;0.20;;;13.30;99.90;;;;;;5016023;28;20049;-68
2022/06/03 06:12:07;;;;;;;0.25;0.25;;;13.40;99.90;;;;;;5015958;28;20312;-68
2022/06/03 06:14:57;;;;;;;0.00;0.00;;;13.50;99.90;;;;;;5015159;28;20061;-68
2022/06/03 06:17:44;;;;;;;0.10;0.10;;;13.50;99.90;;;;;;5025180;28;20053;-68
2022/06/03 06:20:48;;;;;;;0.15;0.15;;;13.60;99.90;;;;;;5024235;28;20428;-67
2022/06/03 06:23:21;;;;;;;0.17;0.17;;;13.60;99.90;;;;;;5021475;28;20066;-68
2022/06/03 06:25:46;;;;;;;0.40;0.40;;;13.60;99.90;;;;;;5026143;28;20030;-68
2022/06/03 06:28:22;;;;;;;0.10;0.10;;;13.70;99.90;;;;;;5027671;28;20970;-68
2022/06/03 06:31:16;;;;;;;0.00;0.00;;;13.80;99.90;;;;;;5017550;28;20050;-68
2022/06/03 06:34:11;;;;;;;0.10;0.10;;;13.90;99.90;;;;;;5013749;28;20046;-68
2022/06/03 06:36:58;;;;;;;0.00;0.00;;;14.00;99.90;;;;;;5013138;28;20064;-68
2022/06/03 06:39:51;;;;;;;0.00;0.00;;;14.20;99.90;;;;;;5010401;28;20096;-67
2022/06/03 06:42:34;;;;;;;0.00;0.00;;;14.20;99.90;;;;;;5021582;28;20057;-68
2022/06/03 06:45:19;;;;;;;0.15;0.15;;;14.20;99.90;;;;;;5014679;28;20336;-67
2022/06/03 06:48:11;;;;;;;0.10;0.10;;;14.30;99.90;;;;;;5014629;28;20102;-68
2022/06/03 06:51:00;;;;;;;0.63;0.63;;;14.40;99.90;;;;;;5029867;28;20053;-67
2022/06/03 06:53:42;;;;;;;0.38;0.38;;;14.40;99.90;;;;;;5029755;28;20456;-68
2022/06/03 06:56:30;;;;;;;0.10;0.10;;;14.50;99.90;;;;;;5027915;28;20049;-68
2022/06/03 06:59:05;;;;;;;0.10;0.10;;;14.50;99.90;;;;;;5015848;28;20042;-68
2022/06/03 07:01:50;;;;;;;0.20;0.20;;;14.60;99.90;;;;;;5008379;28;20129;-68
2022/06/03 07:04:27;;;;;;;0.10;0.10;;;14.70;99.90;;;;;;5010459;28;20521;-68
2022/06/03 07:06:58;;;;;;;0.10;0.10;;;14.80;99.90;;;;;;5013011;28;20108;-68
2022/06/03 07:09:33;;;;;;;0.20;0.20;;;14.90;99.90;;;;;;5018078;28;20064;-67
2022/06/03 07:12:12;;;;;;;1.60;1.20;;;14.90;99.90;;;;;;5014970;28;20382;-68
2022/06/03 07:14:49;;;;;;;0.10;0.10;;;14.90;99.90;;;;;;5018448;28;20080;-67
2022/06/03 07:20:54;;;;;;;0.10;0.10;;;15.10;99.90;;;;;;5009528;28;20093;-68
2022/06/03 07:23:33;;;;;;;0.10;0.10;;;15.20;99.90;;;;;;4973698;28;20058;-68
2022/06/03 07:26:07;;;;;;;0.00;0.00;;;15.30;99.90;;;;;;5023519;28;20072;-68
2022/06/03 07:28:55;;;;;;;0.00;0.00;;;15.40;99.90;;;;;;5010307;28;20050;-67
2022/06/03 07:31:34;;;;;;;0.52;0.52;;;15.50;99.90;;;;;;5008602;28;20052;-68
2022/06/03 07:34:02;;;;;;;0.10;0.10;;;15.60;99.90;;;;;;5018026;28;20172;-68
2022/06/03 07:37:13;;;;;;;0.13;0.13;;;15.70;99.90;;;;;;5008282;28;20049;-68
2022/06/03 07:39:38;;;;;;;0.10;0.10;;;15.70;99.90;;;;;;5026241;28;20049;-68
2022/06/03 07:42:09;;;;;;;0.00;0.00;;;15.80;99.90;;;;;;5019848;28;20443;-68
2022/06/03 07:44:57;;;;;;;0.03;0.03;;;15.90;99.90;;;;;;5024617;28;20140;-68
2022/06/03 07:47:25;;;;;;;0.10;0.10;;;15.90;99.90;;;;;;5019431;28;20221;-67
2022/06/03 07:50:00;;;;;;;0.10;0.10;;;16.00;99.90;;;;;;5008561;28;20077;-68
2022/06/03 07:52:32;;;;;;;0.10;0.10;;;16.10;99.90;;;;;;5009785;28;20076;-68
2022/06/03 07:54:59;;;;;;;0.10;0.10;;;16.10;99.90;;;;;;5009124;28;20486;-68
2022/06/03 07:57:29;;;;;;;0.10;0.10;;;16.20;99.90;;;;;;5028263;28;20481;-67
2022/06/03 08:00:04;;;;;;;0.00;0.00;;;16.30;99.90;;;;;;5015707;28;20071;-68
2022/06/03 08:02:31;;;;;;;0.15;0.15;;;16.30;99.90;;;;;;5021455;28;20046;-68
2022/06/03 08:05:11;;;;;;;0.10;0.10;;;16.50;99.90;;;;;;5008846;28;20425;-68
2022/06/03 08:13:15;;;;;;;0.00;0.00;;;16.60;99.90;;;;;;5029036;28;20045;-68
2022/06/03 08:15:50;;;;;;;0.10;0.10;;;16.70;99.90;;;;;;5027764;28;20371;-68
2022/06/03 08:18:18;;;;;;;0.10;0.10;;;16.70;99.90;;;;;;5011137;28;20502;-68
2022/06/03 08:20:51;;;;;;;0.00;0.00;;;16.70;99.90;;;;;;5009521;28;20045;-68
2022/06/03 08:23:19;;;;;;;4.28;1.45;;;16.80;99.90;;;;;;5023696;28;20398;-68
2022/06/03 08:25:47;;;;;;;0.00;0.00;;;16.80;99.90;;;;;;5018761;28;20037;-68
2022/06/03 08:28:18;;;;;;;0.10;0.10;;;16.90;99.90;;;;;;5009124;28;20049;-68
2022/06/03 08:30:47;;;;;;;0.00;0.00;;;16.90;99.90;;;;;;5022734;28;20033;-68
2022/06/03 08:33:15;;;;;;;2.92;0.43;;;17.00;99.90;;;;;;5028076;28;20470;-68
2022/06/03 08:35:47;;;;;;;0.10;0.10;;;17.10;99.90;;;;;;5020460;28;20048;-68
2022/06/03 08:38:34;;;;;;;0.00;0.00;;;17.20;99.90;;;;;;5015355;28;20046;-68
2022/06/03 08:41:28;;;;;;;0.10;0.10;;;17.20;99.90;;;;;;5007108;28;20046;-68
2022/06/03 08:43:57;;;;;;;0.00;0.00;;;17.30;99.90;;;;;;5012782;28;20057;-68
2022/06/03 08:46:34;;;;;;;0.05;0.05;;;17.30;99.90;;;;;;5013897;28;20049;-68
2022/06/03 08:49:10;;;;;;;0.10;0.10;;;17.40;99.90;;;;;;5006404;28;20064;-68
2022/06/03 08:51:50;;;;;;;0.00;0.00;;;17.40;99.90;;;;;;5021916;28;20099;-68
2022/06/03 08:54:42;;;;;;;0.10;0.10;;;17.60;99.90;;;;;;5022456;28;20060;-68
2022/06/03 08:57:31;;;;;;;0.00;0.00;;;17.60;99.90;;;;;;5013342;28;20050;-68
2022/06/03 09:00:23;;;;;;;0.00;0.00;;;17.60;99.90;;;;;;5025026;28;20481;-69
2022/06/03 09:02:58;;;;;;;0.00;0.00;;;17.70;99.90;;;;;;5028499;28;20059;-68
2022/06/03 09:05:32;;;;;;;0.00;0.00;;;17.80;99.90;;;;;;5015633;28;20096;-68
2022/06/03 09:08:24;;;;;;;0.10;0.10;;;17.80;99.90;;;;;;5004230;28;20050;-68
2022/06/03 09:11:20;;;;;;;0.10;0.10;;;17.90;99.90;;;;;;5007535;28;20077;-68
2022/06/03 09:14:12;;;;;;;0.10;0.10;;;17.90;99.90;;;;;;5012695;28;20048;-68
2022/06/03 09:16:40;;;;;;;0.10;0.10;;;18.00;99.90;;;;;;5027036;28;20061;-68
2022/06/03 09:19:22;;;;;;;0.10;0.10;;;18.00;99.90;;;;;;5010624;28;20060;-68
2022/06/03 09:21:51;;;;;;;0.03;0.03;;;18.10;99.90;;;;;;5023334;28;20179;-68
2022/06/03 09:24:33;;;;;;;0.00;0.00;;;18.20;99.90;;;;;;5009293;28;20496;-68
2022/06/03 09:27:02;;;;;;;0.10;0.10;;;18.40;99.90;;;;;;5024495;28;20519;-68
2022/06/03 09:29:28;;;;;;;1.02;0.75;;;18.40;99.90;;;;;;5024714;28;20074;-68
2022/06/03 09:32:00;;;;;;;0.20;0.20;;;18.40;99.90;;;;;;5024573;28;20050;-68
2022/06/03 09:34:42;;;;;;;0.32;0.32;;;18.60;99.90;;;;;;5022646;28;20133;-68
2022/06/03 09:37:31;;;;;;;0.10;0.10;;;18.60;99.90;;;;;;5015281;28;20120;-68
2022/06/03 09:39:58;;;;;;;0.10;0.10;;;18.70;99.90;;;;;;5023074;28;20068;-68
2022/06/03 09:42:26;;;;;;;0.10;0.10;;;18.90;99.90;;;;;;5023079;28;20060;-68
2022/06/03 09:44:52;;;;;;;0.65;0.65;;;19.40;99.90;;;;;;5025078;28;20042;-68
2022/06/03 09:47:20;;;;;;;0.10;0.10;;;19.80;99.90;;;;;;5028137;28;20056;-68
2022/06/03 09:49:49;;;;;;;0.30;0.30;;;20.20;99.90;;;;;;5017643;28;20041;-68
2022/06/03 09:52:18;;;;;;;0.03;0.03;;;20.70;99.90;;;;;;5021695;28;20370;-68
2022/06/03 09:54:45;;;;;;;0.20;0.20;;;20.90;99.90;;;;;;5013588;28;20497;-68
2022/06/03 09:57:24;;;;;;;0.10;0.10;;;21.10;99.90;;;;;;5013818;28;20125;-68
2022/06/03 10:00:28;;;;;;;0.10;0.10;;;21.10;99.90;;;;;;5024758;28;20390;-68
2022/06/03 10:02:56;;;;;;;0.20;0.20;;;21.20;99.90;;;;;;5024138;28;20096;-68
2022/06/03 10:05:22;;;;;;;0.10;0.10;;;21.40;99.90;;;;;;5010245;28;20140;-68
2022/06/03 10:07:56;;;;;;;0.10;0.10;;;21.40;99.90;;;;;;5024076;28;20037;-68
2022/06/03 10:13:07;;;;;;;0.17;0.17;;;21.50;99.90;;;;;;5022101;28;20054;-68
2022/06/03 10:15:43;;;;;;;0.10;0.10;;;21.50;99.90;;;;;;5030365;28;20512;-68
2022/06/03 10:18:15;;;;;;;0.00;0.00;;;21.50;99.90;;;;;;5025208;28;20054;-68
2022/06/03 10:20:42;;;;;;;0.38;0.38;;;21.40;99.90;;;;;;5014584;28;20052;-68
2022/06/03 10:23:09;;;;;;;2.25;1.13;;;21.60;99.90;;;;;;5019209;28;20492;-68
2022/06/03 10:25:44;;;;;;;0.10;0.10;;;21.60;99.90;;;;;;5022723;28;20038;-70
2022/06/03 10:28:10;;;;;;;0.30;0.22;;;21.80;99.90;;;;;;5019970;28;20060;-69
2022/06/03 10:30:38;;;;;;;0.00;0.00;;;21.90;99.90;;;;;;5012603;28;20531;-69
2022/06/03 10:33:05;;;;;;;0.00;0.00;;;21.90;99.90;;;;;;5012256;28;20042;-70
2022/06/03 10:35:38;;;;;;;0.00;0.00;;;21.80;99.90;;;;;;5014638;28;20085;-69
2022/06/03 10:38:06;;;;;;;0.98;0.77;;;21.90;99.90;;;;;;5032178;28;20064;-69
2022/06/03 10:40:33;;;;;;;0.20;0.20;;;22.00;99.90;;;;;;5030781;28;20084;-70
2022/06/03 10:43:01;;;;;;;0.45;0.40;;;22.10;99.90;;;;;;5015934;28;20057;-70
2022/06/03 10:45:35;;;;;;;0.15;0.15;;;22.10;99.90;;;;;;5020895;28;20489;-69
2022/06/03 10:48:18;;;;;;;0.00;0.00;;;22.10;99.90;;;;;;5024932;28;20041;-69
2022/06/03 10:50:43;;;;;;;0.20;0.20;;;22.10;99.90;;;;;;5028389;28;20045;-70
2022/06/03 11:01:48;;;;;;;0.00;0.00;;;22.10;99.90;;;;;;5029611;28;20063;-69
2022/06/03 11:04:30;;;;;;;0.20;0.20;;;22.30;99.90;;;;;;5024948;28;20053;-69
2022/06/03 11:07:01;;;;;;;0.00;0.00;;;22.50;99.90;;;;;;5017090;28;20091;-70
2022/06/03 11:09:27;;;;;;;0.00;0.00;;;22.70;99.90;;;;;;5009342;28;20541;-70
2022/06/03 11:12:05;;;;;;;0.03;0.03;;;22.80;99.90;;;;;;5012043;28;20135;-69
2022/06/03 11:14:42;;;;;;;0.00;0.00;;;22.80;99.90;;;;;;5018156;28;20053;-70
2022/06/03 11:17:09;;;;;;;0.00;0.00;;;22.90;99.90;;;;;;5029242;28;20506;-70
2022/06/03 11:19:43;;;;;;;0.00;0.00;;;23.00;99.90;;;;;;5022897;28;20034;-69
2022/06/03 11:22:20;;;;;;;0.10;0.10;;;23.00;99.90;;;;;;5025934;28;20049;-70
2022/06/03 11:24:56;;;;;;;0.10;0.10;;;23.20;99.90;;;;;;5019868;28;20049;-69
2022/06/03 11:27:28;;;;;;;0.10;0.10;;;23.30;99.90;;;;;;5020444;28;20065;-70
2022/06/03 11:29:59;;;;;;;0.10;0.10;;;23.20;99.90;;;;;;5010086;28;20506;-69
2022/06/03 11:32:28;;;;;;;0.00;0.00;;;23.30;99.90;;;;;;5012804;28;20065;-69
2022/06/03 11:35:00;;;;;;;0.00;0.00;;;23.40;99.90;;;;;;5026759;28;20053;-69
2022/06/03 11:37:36;;;;;;;0.00;0.00;;;23.70;99.90;;;;;;5013472;28;20177;-70
2022/06/03 11:40:13;;;;;;;0.00;0.00;;;23.00;99.90;;;;;;5026864;28;20046;-70
2022/06/03 11:42:42;;;;;;;0.00;0.00;;;23.00;99.90;;;;;;5013667;28;20045;-70
2022/06/03 11:45:34;;;;;;;0.20;0.20;;;23.00;99.90;;;;;;5016832;28;20069;-70
2022/06/03 11:48:06;;;;;;;0.38;0.38;;;23.20;99.90;;;;;;5017202;28;20057;-70
2022/06/03 11:50:34;;;;;;;0.80;0.20;;;23.70;99.90;;;;;;5008234;28;20046;-70
2022/06/03 11:53:00;;;;;;;0.00;0.00;;;23.30;99.90;;;;;;5017600;28;20037;-70
2022/06/03 11:55:28;;;;;;;0.08;0.08;;;23.00;99.90;;;;;;5008784;28;20088;-70
2022/06/03 11:57:59;;;;;;;0.00;0.00;;;23.40;99.90;;;;;;5008221;28;20042;-70
2022/06/03 12:00:29;;;;;;;0.03;0.03;;;23.40;99.90;;;;;;5007804;28;20049;-70
2022/06/03 12:03:19;;;;;;;1.45;0.75;;;23.60;99.90;;;;;;5025577;28;20042;-70
2022/06/03 12:05:49;;;;;;;0.00;0.00;;;23.70;99.90;;;;;;5028755;28;20049;-69
2022/06/03 12:08:28;;;;;;;0.20;0.20;;;23.90;99.90;;;;;;5021807;28;20536;-69
2022/06/03 12:11:03;;;;;;;0.20;0.20;;;23.90;99.90;;;;;;5007587;28;20041;-70
2022/06/03 12:13:31;;;;;;;0.20;0.20;;;23.90;99.90;;;;;;5015310;28;20038;-69
2022/06/03 12:16:03;;;;;;;0.00;0.00;;;23.80;99.90;;;;;;5008939;28;20073;-69
2022/06/03 12:18:32;;;;;;;0.00;0.00;;;24.00;99.90;;;;;;5017579;28;20489;-68
2022/06/03 12:21:00;;;;;;;0.05;0.05;;;24.20;99.90;;;;;;5012714;28;20053;-69
2022/06/03 12:23:25;;;;;;;0.20;0.15;;;24.20;99.90;;;;;;5018379;28;20502;-68
2022/06/03 12:25:57;;;;;;;0.00;0.00;;;24.30;99.90;;;;;;5014388;28;20041;-68
2022/06/03 12:28:31;;;;;;;0.13;0.13;;;24.50;99.90;;;;;;5007688;28;20552;-67
2022/06/03 12:31:07;;;;;;;0.00;0.00;;;24.40;99.90;;;;;;5007932;28;20045;-68
2022/06/03 12:33:57;;;;;;;0.00;0.00;;;24.50;99.90;;;;;;5017853;28;20051;-68
2022/06/03 12:36:46;;;;;;;0.10;0.10;;;24.80;99.90;;;;;;5025224;28;20057;-68
2022/06/03 12:39:18;;;;;;;0.30;0.30;;;24.90;99.90;;;;;;5026727;28;20558;-68
2022/06/03 12:41:44;;;;;;;0.10;0.10;;;25.00;99.90;;;;;;5026569;28;20053;-68
2022/06/03 12:44:34;;;;;;;0.10;0.10;;;25.00;99.90;;;;;;5019541;28;20049;-67
2022/06/03 12:47:18;;;;;;;0.10;0.10;;;24.90;99.90;;;;;;5018718;28;20037;-68
2022/06/03 12:49:44;;;;;;;0.03;0.03;;;24.80;99.90;;;;;;5028701;28;20053;-67
2022/06/03 12:52:21;;;;;;;0.00;0.00;;;24.80;99.90;;;;;;5014442;28;20042;-68
2022/06/03 12:55:07;;;;;;;0.00;0.00;;;24.60;99.80;;;;;;5008817;28;20056;-67
2022/06/03 12:57:50;;;;;;;0.10;0.10;;;24.70;99.90;;;;;;5007761;28;20077;-67
2022/06/03 13:00:26;;;;;;;0.13;0.13;;;24.70;99.90;;;;;;5006874;28;20054;-67
2022/06/03 13:02:55;;;;;;;0.00;0.00;;;25.00;99.90;;;;;;5010399;28;20049;-67
2022/06/03 13:05:35;;;;;;;0.08;0.05;;;25.00;98.80;;;;;;5011697;28;20113;-68
2022/06/03 13:08:04;;;;;;;1.45;1.10;;;24.80;98.80;;;;;;5025073;28;20049;-67
2022/06/03 13:10:51;;;;;;;0.00;0.00;;;24.90;99.90;;;;;;5027909;28;20049;-67
2022/06/03 13:13:34;;;;;;;0.03;0.03;;;24.90;99.30;;;;;;5013082;28;20611;-68
2022/06/03 13:16:00;;;;;;;0.10;0.10;;;24.70;99.40;;;;;;5006521;28;20034;-68
2022/06/03 13:18:34;;;;;;;0.00;0.00;;;24.80;97.90;;;;;;5008090;28;20063;-68
2022/06/03 13:21:00;;;;;;;15.40;0.35;;;24.80;97.70;;;;;;5010365;28;20045;-67
2022/06/03 13:23:31;;;;;;;0.10;0.10;;;24.90;97.40;;;;;;5008702;28;20501;-67
2022/06/03 13:26:33;;;;;;;0.25;0.10;;;24.80;97.80;;;;;;5025847;28;20037;-67
2022/06/03 13:29:02;;;;;;;0.00;0.00;;;24.80;96.90;;;;;;5010098;28;20054;-68
2022/06/03 13:31:39;;;;;;;0.00;0.00;;;24.90;97.40;;;;;;5012165;28;20038;-67
2022/06/03 13:34:11;;;;;;;0.00;0.00;;;25.00;97.20;;;;;;5017784;28;20445;-68
2022/06/03 13:36:51;;;;;;;0.00;0.00;;;25.10;98.20;;;;;;5023875;28;20053;-67
2022/06/03 13:39:23;;;;;;;0.00;0.00;;;25.30;97.70;;;;;;5028013;28;20374;-67
2022/06/03 13:44:50;;;;;;;0.00;0.00;;;25.20;96.90;;;;;;5012446;28;20046;-67
2022/06/03 13:47:19;;;;;;;0.00;0.00;;;25.20;97.10;;;;;;5019714;28;20062;-67
2022/06/03 13:50:04;;;;;;;0.00;0.00;;;25.30;96.70;;;;;;5031192;28;20450;-67
2022/06/03 13:52:37;;;;;;;0.10;0.10;;;25.00;96.50;;;;;;5024683;28;20072;-67
2022/06/03 13:55:15;;;;;;;0.00;0.00;;;25.00;95.60;;;;;;5011705;28;20058;-67
2022/06/03 13:57:51;;;;;;;0.00;0.00;;;25.10;95.90;;;;;;5009099;28;20046;-67
2022/06/03 14:00:24;;;;;;;0.00;0.00;;;25.00;95.00;;;;;;5012077;28;20042;-68
2022/06/03 14:02:51;;;;;;;;;;;25.10;95.60;;;;;;5027802;28;20401;-67
2022/06/03 14:05:36;;;;;;;0.00;0.00;;;25.10;95.40;;;;;;5011980;28;20286;-67
2022/06/03 14:08:15;;;;;;;8.00;1.13;;;24.90;94.50;;;;;;5011573;28;20045;-67
2022/06/03 14:10:48;;;;;;;0.00;0.00;;;24.80;95.20;;;;;;5008762;28;20055;-67
2022/06/03 14:13:14;;;;;;;1.08;0.35;;;24.80;94.60;;;;;;5010378;28;20478;-67
2022/06/03 14:15:55;;;;;;;0.00;0.00;;;24.70;95.10;;;;;;5029098;28;20154;-67
2022/06/03 14:19:02;;;;;;;0.00;0.00;;;24.70;95.00;;;;;;5009345;28;20049;-67
2022/06/03 14:21:42;;;;;;;0.00;0.00;;;24.70;94.40;;;;;;5010489;28;20054;-67
2022/06/03 14:24:31;;;;;;;0.00;0.00;;;24.50;94.90;;;;;;5009585;28;20480;-67
2022/06/03 14:27:05;;;;;;;0.32;0.32;;;24.70;95.90;;;;;;5023156;28;20394;-67
2022/06/03 14:29:54;;;;;;;0.00;0.00;;;24.30;94.00;;;;;;5013701;28;20042;-67